createdAt,value
2023-05-09T00:00:26.369Z,0.00
2023-05-09T00:01:26.337Z,0.00
2023-05-09T00:02:26.370Z,0.00
2023-05-09T00:03:26.313Z,0.00
2023-05-09T00:04:26.372Z,0.00
2023-05-09T00:05:26.923Z,0.00
2023-05-09T00:06:26.319Z,0.00
2023-05-09T00:07:26.442Z,0.00
2023-05-09T00:08:26.258Z,0.00
2023-05-09T00:09:26.272Z,0.00
2023-05-09T00:10:26.244Z,0.00
2023-05-09T00:11:26.250Z,0.00
2023-05-09T00:12:26.219Z,0.00
2023-05-09T00:14:26.224Z,0.00
2023-05-09T00:15:26.195Z,0.00
2023-05-09T00:16:26.251Z,0.00
2023-05-09T00:17:26.243Z,0.00
2023-05-09T00:18:26.178Z,0.00
2023-05-09T00:19:26.141Z,0.00
2023-05-09T00:20:26.131Z,0.00
2023-05-09T00:21:26.127Z,0.00
2023-05-09T00:22:26.107Z,0.00
2023-05-09T00:23:26.128Z,0.00
2023-05-09T00:24:26.098Z,0.00
2023-05-09T00:25:26.078Z,0.00
2023-05-09T00:26:26.078Z,0.00
2023-05-09T00:27:26.080Z,0.00
2023-05-09T00:28:26.060Z,0.00
2023-05-09T00:29:26.031Z,0.00
2023-05-09T00:30:26.060Z,0.00
2023-05-09T00:31:26.067Z,0.00
2023-05-09T00:32:26.051Z,0.00
2023-05-09T00:33:25.999Z,0.00
2023-05-09T00:34:25.986Z,0.00
2023-05-09T00:35:25.967Z,0.00
2023-05-09T00:36:25.964Z,0.00
2023-05-09T00:37:25.985Z,0.00
2023-05-09T00:38:25.943Z,0.00
2023-05-09T00:39:25.924Z,0.00
2023-05-09T00:40:25.940Z,0.00
2023-05-09T00:41:25.911Z,0.00
2023-05-09T00:42:25.924Z,0.00
2023-05-09T00:43:25.895Z,0.00
2023-05-09T00:44:25.895Z,0.00
2023-05-09T00:45:25.870Z,0.00
2023-05-09T00:46:25.902Z,0.00
2023-05-09T00:47:25.873Z,0.00
2023-05-09T00:48:25.830Z,0.00
2023-05-09T00:49:25.815Z,0.00
2023-05-09T00:50:25.823Z,0.00
2023-05-09T00:51:25.847Z,0.00
2023-05-09T00:52:25.791Z,0.00
2023-05-09T00:53:25.781Z,0.00
2023-05-09T00:54:25.759Z,0.00
2023-05-09T00:55:25.800Z,0.00
2023-05-09T00:56:25.772Z,0.00
2023-05-09T00:57:25.738Z,0.00
2023-05-09T00:58:25.734Z,0.00
2023-05-09T00:59:25.705Z,0.00
2023-05-09T01:00:25.785Z,0.00
2023-05-09T01:01:25.709Z,0.00
2023-05-09T01:02:25.760Z,0.00
2023-05-09T01:03:25.733Z,0.00
2023-05-09T01:04:25.670Z,0.00
2023-05-09T01:05:26.545Z,0.00
2023-05-09T01:06:25.653Z,0.00
2023-05-09T01:07:25.618Z,0.00
2023-05-09T01:08:25.624Z,0.00
2023-05-09T01:09:25.648Z,0.00
2023-05-09T01:10:25.617Z,0.00
2023-05-09T01:11:25.576Z,0.00
2023-05-09T01:12:25.578Z,0.00
2023-05-09T01:13:25.651Z,0.00
2023-05-09T01:14:25.576Z,0.00
2023-05-09T01:15:25.538Z,0.00
2023-05-09T01:16:25.568Z,0.00
2023-05-09T01:17:25.518Z,0.00
2023-05-09T01:18:25.525Z,0.00
2023-05-09T01:19:25.518Z,0.00
2023-05-09T01:20:25.487Z,0.00
2023-05-09T01:21:25.486Z,0.00
2023-05-09T01:22:25.581Z,0.00
2023-05-09T01:23:25.480Z,0.00
2023-05-09T01:24:25.483Z,0.00
2023-05-09T01:25:25.439Z,0.00
2023-05-09T01:26:25.442Z,0.00
2023-05-09T01:27:25.418Z,0.00
2023-05-09T01:28:25.431Z,0.00
2023-05-09T01:29:25.451Z,0.00
2023-05-09T01:30:25.384Z,0.00
2023-05-09T01:31:25.388Z,0.00
2023-05-09T01:32:25.363Z,0.00
2023-05-09T01:33:25.367Z,0.00
2023-05-09T01:34:25.339Z,0.00
2023-05-09T01:35:25.330Z,0.00
2023-05-09T01:36:25.322Z,0.00
2023-05-09T01:37:25.340Z,0.00
2023-05-09T01:38:25.315Z,0.00
2023-05-09T01:39:25.316Z,0.00
2023-05-09T01:40:25.275Z,0.00
2023-05-09T01:41:25.260Z,0.00
2023-05-09T01:42:25.263Z,0.00
2023-05-09T01:43:25.238Z,0.00
2023-05-09T01:44:25.236Z,0.00
2023-05-09T01:45:25.235Z,0.00
2023-05-09T01:46:25.217Z,0.00
2023-05-09T01:47:25.245Z,0.00
2023-05-09T01:48:25.188Z,0.00
2023-05-09T01:49:25.179Z,0.00
2023-05-09T01:50:25.177Z,0.00
2023-05-09T01:51:25.186Z,0.00
2023-05-09T01:52:25.198Z,0.00
2023-05-09T01:53:25.133Z,0.00
2023-05-09T01:54:25.124Z,0.00
2023-05-09T01:55:25.108Z,0.00
2023-05-09T01:56:25.119Z,0.00
2023-05-09T01:57:25.093Z,0.00
2023-05-09T01:58:25.071Z,0.00
2023-05-09T01:59:25.066Z,0.00
2023-05-09T02:00:25.138Z,0.00
2023-05-09T02:01:25.132Z,0.00
2023-05-09T02:02:25.116Z,0.00
2023-05-09T02:03:25.039Z,0.00
2023-05-09T02:04:25.034Z,0.00
2023-05-09T02:05:25.266Z,0.00
2023-05-09T02:06:25.012Z,0.00
2023-05-09T02:07:24.984Z,0.00
2023-05-09T02:08:24.969Z,0.00
2023-05-09T02:09:26.080Z,0.00
2023-05-09T02:10:24.970Z,0.00
2023-05-09T02:11:24.969Z,0.00
2023-05-09T02:12:24.925Z,0.00
2023-05-09T02:13:25.003Z,0.00
2023-05-09T02:14:25.181Z,0.00
2023-05-09T02:15:24.944Z,0.00
2023-05-09T02:16:24.908Z,0.00
2023-05-09T02:17:24.892Z,0.00
2023-05-09T02:18:24.869Z,0.00
2023-05-09T02:19:26.791Z,0.00
2023-05-09T02:20:24.914Z,0.00
2023-05-09T02:21:25.599Z,0.00
2023-05-09T02:22:24.816Z,0.00
2023-05-09T02:23:24.797Z,0.00
2023-05-09T02:24:24.817Z,0.00
2023-05-09T02:25:24.797Z,0.00
2023-05-09T02:26:24.785Z,0.00
2023-05-09T02:27:24.768Z,0.00
2023-05-09T02:28:25.312Z,0.00
2023-05-09T02:29:24.777Z,0.00
2023-05-09T02:30:24.743Z,0.00
2023-05-09T02:31:24.730Z,0.00
2023-05-09T02:32:24.725Z,0.00
2023-05-09T02:33:24.724Z,0.00
2023-05-09T02:34:24.723Z,0.00
2023-05-09T02:35:24.676Z,0.00
2023-05-09T02:36:24.675Z,0.00
2023-05-09T02:37:24.659Z,0.00
2023-05-09T02:38:24.674Z,0.00
2023-05-09T02:39:24.633Z,0.00
2023-05-09T02:40:24.639Z,0.00
2023-05-09T02:41:24.642Z,0.00
2023-05-09T02:42:24.604Z,0.00
2023-05-09T02:43:24.636Z,0.00
2023-05-09T02:44:24.618Z,0.00
2023-05-09T02:45:24.582Z,0.00
2023-05-09T02:46:24.630Z,0.00
2023-05-09T02:47:24.597Z,0.00
2023-05-09T02:48:24.569Z,0.00
2023-05-09T02:49:32.097Z,0.00
2023-05-09T02:50:24.531Z,0.00
2023-05-09T02:51:24.504Z,0.00
2023-05-09T02:52:24.519Z,0.00
2023-05-09T02:53:24.492Z,0.00
2023-05-09T02:54:24.482Z,0.00
2023-05-09T02:55:24.465Z,0.00
2023-05-09T02:56:24.451Z,0.00
2023-05-09T02:57:24.466Z,0.00
2023-05-09T02:58:24.453Z,0.00
2023-05-09T02:59:24.429Z,0.00
2023-05-09T03:00:24.848Z,0.00
2023-05-09T03:01:24.459Z,0.00
2023-05-09T03:02:24.474Z,0.00
2023-05-09T03:03:24.473Z,0.00
2023-05-09T03:04:24.373Z,0.00
2023-05-09T03:05:24.467Z,0.00
2023-05-09T03:06:24.382Z,0.00
2023-05-09T03:07:24.334Z,0.00
2023-05-09T03:08:24.348Z,0.00
2023-05-09T03:09:24.317Z,0.00
2023-05-09T03:10:24.325Z,0.00
2023-05-09T03:11:24.325Z,0.00
2023-05-09T03:12:24.324Z,0.00
2023-05-09T03:13:24.332Z,0.00
2023-05-09T03:14:24.617Z,0.00
2023-05-09T03:15:24.278Z,0.00
2023-05-09T03:16:24.277Z,0.00
2023-05-09T03:17:24.267Z,0.00
2023-05-09T03:18:24.238Z,0.00
2023-05-09T03:19:24.210Z,0.00
2023-05-09T03:20:24.229Z,0.00
2023-05-09T03:21:24.205Z,0.00
2023-05-09T03:22:24.181Z,0.00
2023-05-09T03:23:24.198Z,0.00
2023-05-09T03:24:24.171Z,0.00
2023-05-09T03:25:24.169Z,0.00
2023-05-09T03:26:24.179Z,0.00
2023-05-09T03:27:24.121Z,0.00
2023-05-09T03:28:24.134Z,0.00
2023-05-09T03:29:24.138Z,0.00
2023-05-09T03:30:24.128Z,0.00
2023-05-09T03:31:24.106Z,0.00
2023-05-09T03:32:24.121Z,0.00
2023-05-09T03:33:24.073Z,0.00
2023-05-09T03:34:24.083Z,0.00
2023-05-09T03:35:24.056Z,0.00
2023-05-09T03:36:24.039Z,0.00
2023-05-09T03:37:25.546Z,0.00
2023-05-09T03:38:24.045Z,0.00
2023-05-09T03:39:24.020Z,0.00
2023-05-09T03:40:24.013Z,0.00
2023-05-09T03:41:23.978Z,0.00
2023-05-09T03:42:23.998Z,0.00
2023-05-09T03:43:23.979Z,0.00
2023-05-09T03:44:23.976Z,0.00
2023-05-09T03:45:23.938Z,0.00
2023-05-09T03:46:23.981Z,0.00
2023-05-09T03:47:23.921Z,0.00
2023-05-09T03:48:23.963Z,0.00
2023-05-09T03:49:23.918Z,0.00
2023-05-09T03:50:23.895Z,0.00
2023-05-09T03:51:23.882Z,0.00
2023-05-09T03:52:23.895Z,0.00
2023-05-09T03:53:23.897Z,0.00
2023-05-09T03:54:23.856Z,0.00
2023-05-09T03:55:23.843Z,0.00
2023-05-09T03:56:23.853Z,0.00
2023-05-09T03:57:23.832Z,0.00
2023-05-09T03:58:23.827Z,0.00
2023-05-09T03:59:23.800Z,0.00
2023-05-09T04:00:24.336Z,0.00
2023-05-09T04:01:23.792Z,0.00
2023-05-09T04:02:23.886Z,0.00
2023-05-09T04:03:23.822Z,0.00
2023-05-09T04:04:23.748Z,0.00
2023-05-09T04:05:23.731Z,0.00
2023-05-09T04:06:23.745Z,0.00
2023-05-09T04:07:23.754Z,0.00
2023-05-09T04:08:23.702Z,0.00
2023-05-09T04:09:23.708Z,0.00
2023-05-09T04:10:23.679Z,0.00
2023-05-09T04:11:23.683Z,0.00
2023-05-09T04:12:23.694Z,0.00
2023-05-09T04:13:23.731Z,0.00
2023-05-09T04:14:24.772Z,0.00
2023-05-09T04:15:23.629Z,0.00
2023-05-09T04:16:23.721Z,0.00
2023-05-09T04:17:23.669Z,0.00
2023-05-09T04:18:23.597Z,0.00
2023-05-09T04:19:23.577Z,0.00
2023-05-09T04:20:23.582Z,0.00
2023-05-09T04:21:23.585Z,0.00
2023-05-09T04:22:23.569Z,0.00
2023-05-09T04:23:23.535Z,0.00
2023-05-09T04:24:23.540Z,0.00
2023-05-09T04:25:23.532Z,0.00
2023-05-09T04:26:23.535Z,0.00
2023-05-09T04:27:23.496Z,0.00
2023-05-09T04:28:23.492Z,0.00
2023-05-09T04:29:23.481Z,0.00
2023-05-09T04:30:23.489Z,0.00
2023-05-09T04:31:23.564Z,0.00
2023-05-09T04:32:23.477Z,0.00
2023-05-09T04:33:23.437Z,0.00
2023-05-09T04:34:23.433Z,0.00
2023-05-09T04:35:23.558Z,0.00
2023-05-09T04:36:23.430Z,0.00
2023-05-09T04:37:23.403Z,0.00
2023-05-09T04:38:23.408Z,0.00
2023-05-09T04:39:23.369Z,0.00
2023-05-09T04:40:25.520Z,0.00
2023-05-09T04:41:23.361Z,0.00
2023-05-09T04:42:23.340Z,0.00
2023-05-09T04:43:23.347Z,0.00
2023-05-09T04:44:23.365Z,0.00
2023-05-09T04:45:23.328Z,0.00
2023-05-09T04:46:25.646Z,0.00
2023-05-09T04:47:23.324Z,0.00
2023-05-09T04:48:23.289Z,0.00
2023-05-09T04:49:23.294Z,0.00
2023-05-09T04:50:23.285Z,0.00
2023-05-09T04:51:23.239Z,0.00
2023-05-09T04:52:23.259Z,0.00
2023-05-09T04:53:23.232Z,0.00
2023-05-09T04:54:23.250Z,0.00
2023-05-09T04:55:23.210Z,0.00
2023-05-09T04:56:23.204Z,0.00
2023-05-09T04:57:23.187Z,0.00
2023-05-09T04:58:23.185Z,0.00
2023-05-09T04:59:23.188Z,0.00
2023-05-09T05:00:23.639Z,0.00
2023-05-09T05:01:23.180Z,0.00
2023-05-09T05:02:23.158Z,0.00
2023-05-09T05:03:23.145Z,0.00
2023-05-09T05:04:23.145Z,0.00
2023-05-09T05:05:25.268Z,0.00
2023-05-09T05:06:23.096Z,0.00
2023-05-09T05:07:23.098Z,0.00
2023-05-09T05:08:23.107Z,0.00
2023-05-09T05:09:23.115Z,0.00
2023-05-09T05:10:23.051Z,0.00
2023-05-09T05:11:23.031Z,0.00
2023-05-09T05:12:23.037Z,0.00
2023-05-09T05:13:23.068Z,0.00
2023-05-09T05:14:23.125Z,0.00
2023-05-09T05:15:22.991Z,0.00
2023-05-09T05:16:23.022Z,0.00
2023-05-09T05:17:22.989Z,0.00
2023-05-09T05:18:22.987Z,0.00
2023-05-09T05:19:22.949Z,0.00
2023-05-09T05:20:22.966Z,0.00
2023-05-09T05:21:22.951Z,0.00
2023-05-09T05:22:22.943Z,0.00
2023-05-09T05:23:22.938Z,0.00
2023-05-09T05:24:22.901Z,0.00
2023-05-09T05:25:22.899Z,0.00
2023-05-09T05:26:22.897Z,0.00
2023-05-09T05:27:22.884Z,0.00
2023-05-09T05:28:22.860Z,0.00
2023-05-09T05:29:22.901Z,0.00
2023-05-09T05:30:22.854Z,0.00
2023-05-09T05:31:22.877Z,0.00
2023-05-09T05:32:22.840Z,0.00
2023-05-09T05:33:22.819Z,0.00
2023-05-09T05:34:22.800Z,0.00
2023-05-09T05:35:22.787Z,0.00
2023-05-09T05:36:22.791Z,0.00
2023-05-09T05:37:22.777Z,0.00
2023-05-09T05:38:22.776Z,0.00
2023-05-09T05:39:22.757Z,0.00
2023-05-09T05:40:22.720Z,0.00
2023-05-09T05:41:22.725Z,0.00
2023-05-09T05:42:22.712Z,0.00
2023-05-09T05:43:22.691Z,0.00
2023-05-09T05:44:22.696Z,0.00
2023-05-09T05:45:22.697Z,0.00
2023-05-09T05:46:24.104Z,0.00
2023-05-09T05:47:22.647Z,0.00
2023-05-09T05:48:22.639Z,0.00
2023-05-09T05:49:22.634Z,0.00
2023-05-09T05:50:22.644Z,0.00
2023-05-09T05:51:22.629Z,0.00
2023-05-09T05:52:22.599Z,0.00
2023-05-09T05:53:22.583Z,0.00
2023-05-09T05:54:22.640Z,0.00
2023-05-09T05:55:22.615Z,0.00
2023-05-09T05:56:22.560Z,0.00
2023-05-09T05:57:22.552Z,0.00
2023-05-09T05:58:22.534Z,0.00
2023-05-09T05:59:22.515Z,0.00
2023-05-09T06:00:23.473Z,0.00
2023-05-09T06:01:22.659Z,0.00
2023-05-09T06:02:22.513Z,0.00
2023-05-09T06:03:22.541Z,0.00
2023-05-09T06:04:22.614Z,0.00
2023-05-09T06:05:22.477Z,0.00
2023-05-09T06:06:22.442Z,0.00
2023-05-09T06:07:22.432Z,0.00
2023-05-09T06:08:22.440Z,0.00
2023-05-09T06:09:22.439Z,0.00
2023-05-09T06:10:22.405Z,0.00
2023-05-09T06:11:22.393Z,0.00
2023-05-09T06:12:22.372Z,0.00
2023-05-09T06:13:22.513Z,0.00
2023-05-09T06:14:22.391Z,0.00
2023-05-09T06:15:22.350Z,0.00
2023-05-09T06:16:22.391Z,0.00
2023-05-09T06:17:22.327Z,0.00
2023-05-09T06:18:22.316Z,0.00
2023-05-09T06:19:22.326Z,0.00
2023-05-09T06:20:22.285Z,0.00
2023-05-09T06:21:22.291Z,0.00
2023-05-09T06:22:22.292Z,0.00
2023-05-09T06:23:22.337Z,0.00
2023-05-09T06:24:34.530Z,0.00
2023-05-09T06:25:22.254Z,0.00
2023-05-09T06:26:22.237Z,0.00
2023-05-09T06:27:22.218Z,0.00
2023-05-09T06:28:22.223Z,0.00
2023-05-09T06:29:22.213Z,0.00
2023-05-09T06:30:26.083Z,0.00
2023-05-09T06:31:23.514Z,0.00
2023-05-09T06:32:22.248Z,0.00
2023-05-09T06:33:22.196Z,0.00
2023-05-09T06:34:22.147Z,0.00
2023-05-09T06:35:22.206Z,0.00
2023-05-09T06:36:22.149Z,0.00
2023-05-09T06:37:22.153Z,0.00
2023-05-09T06:38:22.136Z,0.00
2023-05-09T06:39:22.100Z,0.00
2023-05-09T06:40:22.085Z,0.00
2023-05-09T06:41:22.077Z,0.00
2023-05-09T06:42:22.082Z,0.00
2023-05-09T06:43:22.061Z,0.00
2023-05-09T06:44:22.033Z,0.00
2023-05-09T06:45:22.110Z,0.00
2023-05-09T06:46:22.085Z,0.00
2023-05-09T06:47:22.032Z,0.00
2023-05-09T06:48:22.004Z,0.00
2023-05-09T06:49:22.000Z,0.00
2023-05-09T06:50:21.982Z,0.00
2023-05-09T06:51:22.035Z,0.00
2023-05-09T06:52:21.996Z,0.00
2023-05-09T06:53:21.966Z,0.00
2023-05-09T06:54:21.932Z,0.00
2023-05-09T06:55:22.323Z,0.00
2023-05-09T06:56:21.974Z,0.00
2023-05-09T06:57:21.898Z,0.00
2023-05-09T06:58:21.923Z,0.00
2023-05-09T06:59:21.874Z,0.00
2023-05-09T07:00:21.877Z,0.00
2023-05-09T07:01:21.954Z,0.00
2023-05-09T07:02:21.846Z,0.00
2023-05-09T07:03:21.864Z,0.00
2023-05-09T07:04:21.824Z,0.00
2023-05-09T07:05:21.919Z,0.00
2023-05-09T07:06:21.854Z,0.00
2023-05-09T07:07:21.793Z,0.00
2023-05-09T07:08:21.782Z,0.00
2023-05-09T07:09:21.796Z,0.00
2023-05-09T07:10:21.781Z,0.00
2023-05-09T07:11:28.246Z,0.00
2023-05-09T07:12:21.740Z,0.00
2023-05-09T07:13:21.838Z,0.00
2023-05-09T07:14:21.721Z,0.00
2023-05-09T07:15:36.696Z,0.00
2023-05-09T07:16:21.781Z,0.00
2023-05-09T07:17:24.032Z,0.00
2023-05-09T07:18:21.687Z,0.00
2023-05-09T07:19:21.692Z,0.00
2023-05-09T07:20:21.748Z,0.00
2023-05-09T07:21:21.668Z,0.00
2023-05-09T07:22:21.660Z,0.00
2023-05-09T07:23:21.627Z,0.00
2023-05-09T07:24:21.626Z,0.00
2023-05-09T07:25:21.645Z,0.00
2023-05-09T07:26:21.595Z,0.00
2023-05-09T07:27:21.604Z,0.00
2023-05-09T07:28:21.600Z,0.00
2023-05-09T07:29:21.593Z,0.00
2023-05-09T07:30:21.569Z,0.00
2023-05-09T07:31:21.603Z,0.00
2023-05-09T07:32:21.548Z,0.00
2023-05-09T07:33:21.569Z,0.00
2023-05-09T07:34:21.532Z,0.00
2023-05-09T07:35:21.524Z,0.00
2023-05-09T07:36:21.467Z,0.00
2023-05-09T07:37:21.544Z,0.00
2023-05-09T07:38:21.493Z,0.00
2023-05-09T07:39:21.464Z,0.00
2023-05-09T07:40:21.448Z,0.00
2023-05-09T07:41:21.563Z,0.00
2023-05-09T07:42:21.442Z,0.00
2023-05-09T07:43:21.425Z,0.00
2023-05-09T07:44:21.404Z,0.00
2023-05-09T07:45:23.666Z,0.00
2023-05-09T07:46:21.992Z,0.00
2023-05-09T07:47:21.388Z,0.00
2023-05-09T07:48:21.353Z,0.00
2023-05-09T07:49:21.336Z,0.00
2023-05-09T07:50:21.333Z,0.00
2023-05-09T07:51:21.341Z,0.00
2023-05-09T07:52:21.369Z,0.00
2023-05-09T07:53:21.296Z,0.00
2023-05-09T07:54:21.285Z,0.00
2023-05-09T07:55:21.354Z,0.00
2023-05-09T07:56:21.261Z,0.00
2023-05-09T07:57:21.284Z,0.00
2023-05-09T07:58:21.242Z,0.00
2023-05-09T07:59:21.272Z,0.00
2023-05-09T08:00:21.231Z,0.00
2023-05-09T08:01:21.248Z,0.00
2023-05-09T08:02:21.291Z,0.00
2023-05-09T08:03:21.282Z,0.00
2023-05-09T08:04:21.204Z,0.00
2023-05-09T08:05:21.203Z,0.00
2023-05-09T08:06:21.188Z,0.00
2023-05-09T08:07:21.194Z,0.00
2023-05-09T08:08:21.144Z,0.00
2023-05-09T08:09:22.654Z,0.00
2023-05-09T08:10:21.118Z,0.00
2023-05-09T08:11:21.137Z,0.00
2023-05-09T08:12:21.090Z,0.00
2023-05-09T08:13:21.262Z,0.00
2023-05-09T08:14:21.101Z,0.00
2023-05-09T08:15:21.149Z,0.00
2023-05-09T08:16:21.195Z,0.00
2023-05-09T08:17:21.086Z,0.00
2023-05-09T08:18:21.050Z,0.00
2023-05-09T08:19:21.086Z,0.00
2023-05-09T08:20:21.044Z,0.00
2023-05-09T08:21:22.283Z,0.00
2023-05-09T08:22:21.001Z,0.00
2023-05-09T08:23:20.985Z,0.00
2023-05-09T08:24:21.001Z,0.00
2023-05-09T08:25:21.014Z,0.00
2023-05-09T08:26:20.963Z,0.00
2023-05-09T08:27:20.947Z,0.00
2023-05-09T08:28:20.938Z,0.00
2023-05-09T08:29:20.942Z,0.00
2023-05-09T08:30:20.910Z,0.00
2023-05-09T08:31:20.953Z,0.00
2023-05-09T08:32:20.888Z,0.00
2023-05-09T08:33:20.911Z,0.00
2023-05-09T08:34:20.902Z,0.00
2023-05-09T08:35:20.861Z,0.00
2023-05-09T08:36:20.848Z,0.00
2023-05-09T08:37:20.854Z,0.00
2023-05-09T08:38:20.845Z,0.00
2023-05-09T08:39:20.850Z,0.00
2023-05-09T08:40:20.818Z,0.00
2023-05-09T08:41:20.899Z,0.00
2023-05-09T08:42:20.872Z,0.00
2023-05-09T08:43:20.828Z,0.00
2023-05-09T08:44:20.826Z,0.00
2023-05-09T08:45:20.838Z,0.00
2023-05-09T08:46:22.213Z,0.00
2023-05-09T08:47:20.753Z,0.00
2023-05-09T08:48:20.761Z,0.00
2023-05-09T08:49:20.711Z,0.00
2023-05-09T08:50:20.688Z,0.00
2023-05-09T08:51:21.366Z,0.00
2023-05-09T08:52:20.831Z,0.00
2023-05-09T08:53:20.684Z,0.00
2023-05-09T08:54:22.206Z,0.00
2023-05-09T08:55:20.721Z,0.00
2023-05-09T08:56:20.629Z,0.00
2023-05-09T08:57:20.693Z,0.00
2023-05-09T08:58:20.618Z,0.00
2023-05-09T08:59:20.627Z,0.00
2023-05-09T09:00:21.136Z,0.00
2023-05-09T09:01:20.616Z,0.00
2023-05-09T09:02:20.615Z,0.00
2023-05-09T09:03:20.669Z,0.00
2023-05-09T09:04:20.651Z,0.00
2023-05-09T09:05:39.994Z,0.00
2023-05-09T09:06:20.664Z,0.00
2023-05-09T09:07:20.602Z,0.00
2023-05-09T09:08:20.572Z,0.00
2023-05-09T09:09:20.562Z,0.00
2023-05-09T09:10:20.523Z,0.00
2023-05-09T09:11:20.522Z,0.00
2023-05-09T09:12:20.512Z,0.00
2023-05-09T09:13:20.581Z,0.00
2023-05-09T09:14:20.487Z,0.00
2023-05-09T09:15:20.725Z,0.00
2023-05-09T09:16:20.550Z,0.00
2023-05-09T09:17:20.457Z,0.00
2023-05-09T09:18:20.543Z,0.00
2023-05-09T09:19:20.397Z,0.00
2023-05-09T09:20:20.474Z,0.00
2023-05-09T09:21:20.408Z,0.00
2023-05-09T09:22:20.393Z,0.00
2023-05-09T09:23:20.341Z,0.00
2023-05-09T09:24:20.330Z,0.00
2023-05-09T09:25:20.354Z,0.00
2023-05-09T09:26:20.416Z,0.00
2023-05-09T09:27:20.334Z,0.00
2023-05-09T09:28:20.311Z,0.00
2023-05-09T09:29:20.324Z,0.00
2023-05-09T09:30:20.399Z,0.00
2023-05-09T09:31:20.313Z,0.00
2023-05-09T09:32:20.373Z,0.00
2023-05-09T09:33:20.257Z,0.00
2023-05-09T09:34:20.294Z,0.00
2023-05-09T09:35:20.237Z,0.00
2023-05-09T09:36:20.226Z,0.00
2023-05-09T09:37:20.208Z,0.00
2023-05-09T09:38:20.253Z,0.00
2023-05-09T09:39:20.269Z,0.00
2023-05-09T09:40:20.220Z,0.00
2023-05-09T09:41:20.183Z,0.00
2023-05-09T09:42:20.156Z,0.00
2023-05-09T09:43:20.199Z,0.00
2023-05-09T09:44:20.149Z,0.00
2023-05-09T09:45:20.293Z,0.00
2023-05-09T09:46:20.153Z,0.00
2023-05-09T09:47:20.112Z,0.00
2023-05-09T09:48:20.111Z,0.00
2023-05-09T09:49:20.077Z,0.00
2023-05-09T09:50:20.124Z,0.00
2023-05-09T09:51:20.087Z,0.00
2023-05-09T09:52:20.058Z,0.00
2023-05-09T09:53:20.075Z,0.00
2023-05-09T09:54:20.062Z,0.00
2023-05-09T09:55:20.437Z,0.00
2023-05-09T09:56:20.278Z,0.00
2023-05-09T09:57:20.385Z,0.00
2023-05-09T09:58:20.459Z,0.00
2023-05-09T09:59:19.994Z,0.00
2023-05-09T10:00:19.989Z,0.00
2023-05-09T10:01:19.988Z,0.00
2023-05-09T10:02:19.958Z,0.00
2023-05-09T10:03:20.020Z,0.00
2023-05-09T10:04:19.952Z,0.00
2023-05-09T10:05:19.906Z,0.00
2023-05-09T10:06:19.900Z,0.00
2023-05-09T10:07:19.968Z,0.00
2023-05-09T10:08:19.958Z,0.00
2023-05-09T10:09:19.866Z,0.00
2023-05-09T10:10:20.038Z,0.00
2023-05-09T10:11:19.870Z,0.00
2023-05-09T10:12:19.854Z,0.00
2023-05-09T10:13:19.868Z,0.00
2023-05-09T10:14:19.855Z,0.00
2023-05-09T10:15:19.788Z,0.00
2023-05-09T10:16:25.899Z,0.00
2023-05-09T10:17:19.863Z,0.00
2023-05-09T10:18:26.513Z,0.00
2023-05-09T10:19:19.752Z,0.00
2023-05-09T10:20:19.740Z,0.00
2023-05-09T10:21:19.741Z,0.00
2023-05-09T10:22:19.739Z,0.00
2023-05-09T10:23:19.715Z,0.00
2023-05-09T10:24:19.700Z,0.00
2023-05-09T10:25:19.797Z,0.00
2023-05-09T10:26:19.740Z,0.00
2023-05-09T10:27:19.687Z,0.00
2023-05-09T10:28:19.713Z,0.00
2023-05-09T10:29:19.676Z,0.00
2023-05-09T10:30:19.678Z,0.00
2023-05-09T10:31:19.673Z,0.00
2023-05-09T10:32:19.612Z,0.00
2023-05-09T10:33:19.598Z,0.00
2023-05-09T10:34:19.602Z,0.00
2023-05-09T10:35:19.625Z,0.00
2023-05-09T10:36:19.616Z,0.00
2023-05-09T10:37:19.578Z,0.00
2023-05-09T10:38:19.550Z,0.00
2023-05-09T10:39:19.572Z,0.00
2023-05-09T10:40:19.584Z,0.00
2023-05-09T10:41:19.517Z,0.00
2023-05-09T10:42:19.513Z,0.00
2023-05-09T10:43:19.500Z,0.00
2023-05-09T10:44:19.543Z,0.00
2023-05-09T10:45:19.532Z,0.00
2023-05-09T10:46:19.525Z,0.00
2023-05-09T10:47:19.571Z,0.00
2023-05-09T10:48:19.485Z,0.00
2023-05-09T10:49:19.483Z,0.00
2023-05-09T10:50:20.727Z,0.00
2023-05-09T10:51:19.433Z,0.00
2023-05-09T10:52:19.391Z,0.00
2023-05-09T10:53:19.431Z,0.00
2023-05-09T10:54:19.411Z,0.00
2023-05-09T10:55:19.369Z,0.00
2023-05-09T10:56:19.374Z,0.00
2023-05-09T10:57:19.351Z,0.00
2023-05-09T10:58:19.414Z,0.00
2023-05-09T10:59:19.358Z,0.00
2023-05-09T11:00:19.370Z,0.00
2023-05-09T11:01:19.352Z,0.00
2023-05-09T11:02:19.317Z,0.00
2023-05-09T11:03:19.482Z,0.00
2023-05-09T11:04:19.272Z,0.00
2023-05-09T11:05:19.299Z,0.00
2023-05-09T11:06:19.246Z,0.00
2023-05-09T11:07:19.274Z,0.00
2023-05-09T11:08:19.274Z,0.00
2023-05-09T11:09:19.212Z,0.00
2023-05-09T11:10:19.207Z,0.00
2023-05-09T11:11:19.222Z,0.00
2023-05-09T11:12:19.227Z,0.00
2023-05-09T11:13:19.330Z,0.00
2023-05-09T11:14:19.174Z,0.00
2023-05-09T11:15:19.188Z,0.00
2023-05-09T11:16:19.260Z,0.00
2023-05-09T11:17:19.148Z,0.00
2023-05-09T11:18:19.150Z,0.00
2023-05-09T11:19:19.113Z,0.00
2023-05-09T11:20:19.131Z,0.00
2023-05-09T11:21:19.090Z,0.00
2023-05-09T11:22:19.103Z,0.00
2023-05-09T11:23:19.094Z,0.00
2023-05-09T11:24:19.058Z,0.00
2023-05-09T11:25:19.052Z,0.00
2023-05-09T11:26:19.058Z,0.00
2023-05-09T11:27:19.015Z,0.00
2023-05-09T11:28:19.017Z,0.00
2023-05-09T11:29:19.037Z,0.00
2023-05-09T11:30:19.011Z,0.00
2023-05-09T11:31:19.169Z,0.00
2023-05-09T11:32:18.980Z,0.00
2023-05-09T11:33:18.963Z,0.00
2023-05-09T11:34:18.976Z,0.00
2023-05-09T11:35:19.019Z,0.00
2023-05-09T11:36:18.955Z,0.00
2023-05-09T11:37:18.947Z,0.00
2023-05-09T11:38:18.908Z,0.00
2023-05-09T11:39:18.931Z,0.00
2023-05-09T11:40:18.964Z,0.00
2023-05-09T11:41:18.916Z,0.00
2023-05-09T11:42:18.901Z,0.00
2023-05-09T11:43:18.864Z,0.00
2023-05-09T11:44:18.857Z,0.00
2023-05-09T11:45:18.898Z,0.00
2023-05-09T11:46:18.901Z,0.00
2023-05-09T11:47:18.793Z,0.00
2023-05-09T11:48:18.863Z,0.00
2023-05-09T11:49:18.825Z,0.00
2023-05-09T11:50:18.832Z,0.00
2023-05-09T11:51:18.768Z,0.00
2023-05-09T11:52:18.772Z,0.00
2023-05-09T11:53:18.749Z,0.00
2023-05-09T11:54:18.772Z,0.00
2023-05-09T11:55:19.371Z,0.00
2023-05-09T11:56:18.777Z,0.00
2023-05-09T11:57:18.769Z,0.00
2023-05-09T11:58:18.717Z,0.00
2023-05-09T11:59:18.702Z,0.00
2023-05-09T12:00:18.655Z,0.00
2023-05-09T12:01:18.664Z,0.00
2023-05-09T12:02:18.706Z,0.00
2023-05-09T12:03:19.100Z,0.00
2023-05-09T12:04:18.689Z,0.00
2023-05-09T12:05:18.668Z,0.00
2023-05-09T12:06:18.610Z,0.00
2023-05-09T12:07:18.619Z,0.00
2023-05-09T12:08:18.603Z,0.00
2023-05-09T12:09:18.554Z,0.00
2023-05-09T12:10:18.573Z,0.00
2023-05-09T12:11:18.557Z,0.00
2023-05-09T12:12:18.552Z,0.00
2023-05-09T12:13:18.576Z,0.00
2023-05-09T12:14:18.527Z,0.00
2023-05-09T12:15:19.219Z,0.00
2023-05-09T12:16:18.562Z,0.00
2023-05-09T12:17:18.545Z,0.00
2023-05-09T12:18:18.503Z,0.00
2023-05-09T12:19:18.598Z,0.00
2023-05-09T12:20:18.465Z,0.00
2023-05-09T12:21:18.459Z,0.00
2023-05-09T12:22:18.474Z,0.00
2023-05-09T12:23:18.423Z,0.00
2023-05-09T12:24:18.430Z,0.00
2023-05-09T12:25:18.396Z,0.00
2023-05-09T12:26:18.476Z,0.00
2023-05-09T12:27:18.429Z,0.00
2023-05-09T12:28:18.370Z,0.00
2023-05-09T12:29:18.349Z,0.00
2023-05-09T12:30:18.349Z,0.00
2023-05-09T12:31:18.466Z,0.00
2023-05-09T12:32:18.363Z,0.00
2023-05-09T12:33:18.424Z,0.00
2023-05-09T12:34:18.301Z,0.00
2023-05-09T12:35:18.289Z,0.00
2023-05-09T12:36:18.303Z,0.00
2023-05-09T12:37:24.766Z,0.00
2023-05-09T12:38:25.781Z,0.00
2023-05-09T12:39:25.754Z,0.00
2023-05-09T12:40:18.255Z,0.00
2023-05-09T12:41:35.073Z,0.00
2023-05-09T12:43:29.012Z,1456.00
2023-05-09T12:44:30.238Z,1326.00
2023-05-09T12:45:30.019Z,1333.00
2023-05-09T12:46:29.969Z,1817.00
2023-05-09T12:47:29.997Z,1509.00
2023-05-09T12:48:29.945Z,1265.00
2023-05-09T12:49:29.942Z,1044.00
2023-05-09T12:50:29.933Z,1114.00
2023-05-09T12:51:29.940Z,1354.00
2023-05-09T12:52:29.899Z,1190.00
2023-05-09T12:53:29.877Z,1230.00
2023-05-09T12:54:29.872Z,1156.00
2023-05-09T12:55:29.885Z,768.00
2023-05-09T12:56:29.892Z,1358.00
2023-05-09T12:57:31.548Z,1731.00
2023-05-09T12:58:29.835Z,1842.00
2023-05-09T12:59:29.847Z,1734.00
2023-05-09T13:00:29.886Z,1681.00
2023-05-09T13:01:29.930Z,1989.00
2023-05-09T13:02:29.812Z,1468.00
2023-05-09T13:03:29.871Z,1995.00
2023-05-09T13:04:29.863Z,2252.00
2023-05-09T13:05:29.791Z,1987.00
2023-05-09T13:06:29.742Z,1788.00
2023-05-09T13:07:29.743Z,1655.00
2023-05-09T13:08:29.725Z,1518.00
2023-05-09T13:09:29.760Z,1871.00
2023-05-09T13:10:29.716Z,2012.00
2023-05-09T13:11:29.702Z,1894.00
2023-05-09T13:12:29.714Z,1944.00
2023-05-09T13:13:29.833Z,1888.00
2023-05-09T13:14:29.971Z,1820.00
2023-05-09T13:15:29.670Z,1847.00
2023-05-09T13:16:30.418Z,1676.00
2023-05-09T13:17:29.667Z,1637.00